CheckWX is a tool to help pilots better visualize weather data.  It is not intended as a substitute for an official pre-flight weather briefing.

17:28:39 UTC

EGJB METAR
Guernsey Airport
Saint Peter Port, Guernsey
Current

39 mins ago

EGJB 071650Z 23013KT 9999 FEW012 BKN026 11/08 Q1016
Observed
Dec-7 @ 16:50 UTC
Wind
  • 230° at 13 KTS
Visibility
10,000+ meters
Flight Rules
MVFR
Cloud Levels
  • Few at 1,200' AGL
  • Broken at 2,600' AGL
Temperature
11°C / 52°F
Dewpoint
C / 46°F
Humidity
82%
Altimeter
30" Hg
Pressure
1015.92 hPa
Previous

1 hour ago

EGJB 071620Z 22011KT 9999 FEW012 BKN026 11/08 Q1016
Observed
Dec-7 @ 16:20 UTC
Wind
  • 220° at 11 KTS
Visibility
10,000+ meters
Flight Rules
MVFR
Cloud Levels
  • Few at 1,200' AGL
  • Broken at 2,600' AGL
Temperature
11°C / 52°F
Dewpoint
C / 46°F
Humidity
82%
Altimeter
30" Hg
Pressure
1015.92 hPa
Previous

2 hours ago

EGJB 071550Z 22011KT 9999 FEW012 SCT026 11/09 Q1016
Observed
Dec-7 @ 15:50 UTC
Wind
  • 220° at 11 KTS
Visibility
10,000+ meters
Flight Rules
VFR
Cloud Levels
  • Few at 1,200' AGL
  • Scattered at 2,600' AGL
Temperature
11°C / 52°F
Dewpoint
C / 48°F
Humidity
88%
Altimeter
30" Hg
Pressure
1015.92 hPa